Station History

Weather Underground - logo

Station Historical Data
Daily Summary for August 11, 2018 Units:  Metric    English   Both
« Previous Day
Next Day »
Daily Weekly Monthly Yearly Custom
  High: Low: Average:
Temperature: 37.1 °C 20.4 °C 28.3 °C
Dew Point: 19.7 °C 9 °C 14.2 °C
Humidity: 73 % 21 % 45 %
Wind Speed: 7.4 km/h 0 km/h 1.3 km/h
Wind Gust: 3.9 km/h - -
Wind:- - SSW
Pressure: 1013.8 hPa 1008.4 hPa -
Precipitation: 0 mm    
Historical Graphs
 
 
Tabular Data for August 11, 2018
Time Temperature Dew Point Pressure Wind Wind Speed Wind Gust Humidity Rainfall Rate (Hourly)
00:04 23.2 °C 17.4 °C 1011.1 hPa Calm     70 % 0 mm
00:09 23.2 °C 17.2 °C 1011.1 hPa Calm     69 % 0 mm
00:14 23.1 °C 17.1 °C 1011.1 hPa Calm     69 % 0 mm
00:19 23.1 °C 17.1 °C 1011.1 hPa Calm     69 % 0 mm
00:24 23.1 °C 17.1 °C 1011.4 hPa SE 1.9 km/h   69 % 0 mm
00:29 23 °C 16.8 °C 1011.4 hPa SE 1.9 km/h   68 % 0 mm
00:34 22.9 °C 16.7 °C 1011.4 hPa SE 1.9 km/h   68 % 0 mm
00:39 22.9 °C 16.7 °C 1011.4 hPa Calm     68 % 0 mm
00:44 22.8 °C 16.4 °C 1011.4 hPa Calm   0.2 km/h 67 % 0 mm
00:49 22.8 °C 16.6 °C 1011.4 hPa Calm     68 % 0 mm
00:54 22.7 °C 16.5 °C 1011.4 hPa Calm     68 % 0 mm
00:59 22.7 °C 16.3 °C 1011.4 hPa Calm     67 % 0 mm
01:04 22.7 °C 16.2 °C 1011.4 hPa Calm     67 % 0 mm
01:09 22.7 °C 16.2 °C 1011.4 hPa Calm     67 % 0 mm
01:14 22.7 °C 15.7 °C 1011.4 hPa Calm     65 % 0 mm
01:19 22.7 °C 15.7 °C 1011.4 hPa Calm     65 % 0 mm
01:24 22.6 °C 15.9 °C 1011.4 hPa Calm     66 % 0 mm
01:29 22.5 °C 15.8 °C 1011.4 hPa Calm     66 % 0 mm
01:34 22.3 °C 15.7 °C 1011.4 hPa Calm     66 % 0 mm
01:39 22.2 °C 15.1 °C 1011.4 hPa SE 1.6 km/h   64 % 0 mm
01:44 22.1 °C 15.2 °C 1011.4 hPa Calm     65 % 0 mm
01:49 22 °C 15.1 °C 1011.4 hPa ESE 1.6 km/h   65 % 0 mm
01:54 21.9 °C 15.1 °C 1011.4 hPa Calm     65 % 0 mm
01:59 21.9 °C 14.8 °C 1011.4 hPa ESE 1.9 km/h   64 % 0 mm
02:04 22 °C 14.1 °C 1011.4 hPa Calm     61 % 0 mm
02:09 22.2 °C 14.1 °C 1011.4 hPa Calm   0.2 km/h 60 % 0 mm
02:14 22.3 °C 13.3 °C 1011.4 hPa ESE 1.9 km/h   57 % 0 mm
02:19 22.4 °C 13.7 °C 1011.4 hPa Calm     58 % 0 mm
02:24 22.3 °C 13.1 °C 1011.4 hPa Calm     56 % 0 mm
02:29 22.2 °C 13 °C 1011.4 hPa Calm     56 % 0 mm
02:34 22.1 °C 12.7 °C 1011.4 hPa ESE 1.9 km/h   55 % 0 mm
02:39 22.1 °C 13.2 °C 1011.7 hPa Calm     57 % 0 mm
02:44 21.9 °C 12.8 °C 1011.7 hPa Calm     56 % 0 mm
02:49 21.8 °C 12.3 °C 1011.4 hPa Calm     55 % 0 mm
02:54 21.6 °C 11.9 °C 1011.4 hPa Calm     54 % 0 mm
02:59 21.6 °C 12.2 °C 1011.4 hPa Calm     55 % 0 mm
03:04 21.6 °C 12.4 °C 1011.4 hPa Calm     56 % 0 mm
03:09 21.6 °C 12.2 °C 1011.4 hPa Calm     55 % 0 mm
03:14 21.6 °C 12.1 °C 1011.4 hPa Calm     55 % 0 mm
03:19 21.5 °C 12.6 °C 1011.4 hPa Calm     57 % 0 mm
03:24 21.4 °C 12.6 °C 1011.4 hPa Calm     57 % 0 mm
03:29 21.4 °C 12.2 °C 1011.4 hPa Calm     56 % 0 mm
03:34 21.3 °C 12.4 °C 1011.4 hPa Calm     57 % 0 mm
03:39 21.3 °C 11.7 °C 1011.4 hPa Calm     54 % 0 mm
03:44 21.4 °C 11.4 °C 1011.4 hPa Calm     53 % 0 mm
03:49 21.4 °C 11.2 °C 1011.4 hPa Calm     52 % 0 mm
03:54 21.4 °C 11.4 °C 1011.4 hPa Calm     53 % 0 mm
03:59 21.4 °C 12.5 °C 1011.4 hPa Calm     57 % 0 mm
04:04 21.2 °C 12.1 °C 1011.4 hPa Calm     56 % 0 mm
04:09 21.1 °C 11.7 °C 1011.4 hPa Calm     55 % 0 mm
04:14 21.1 °C 10.9 °C 1011.4 hPa Calm     52 % 0 mm
04:19 21.2 °C 11.5 °C 1011.4 hPa Calm     54 % 0 mm
04:24 21.1 °C 11.7 °C 1011.7 hPa Calm     55 % 0 mm
04:29 20.9 °C 11.8 °C 1011.7 hPa Calm     56 % 0 mm
04:34 20.7 °C 11.3 °C 1011.7 hPa Calm   0.2 km/h 55 % 0 mm
04:39 20.7 °C 11.1 °C 1011.7 hPa Calm     54 % 0 mm
04:44 20.7 °C 11.3 °C 1011.7 hPa Calm     55 % 0 mm
04:49 20.7 °C 11.6 °C 1011.7 hPa Calm     56 % 0 mm
04:54 20.6 °C 11.4 °C 1011.7 hPa Calm     56 % 0 mm
04:59 20.5 °C 11.4 °C 1011.7 hPa Calm     56 % 0 mm
05:04 20.4 °C 11.1 °C 1011.7 hPa Calm     55 % 0 mm
05:09 20.4 °C 10.6 °C 1012.1 hPa ESE 1.6 km/h   53 % 0 mm
05:14 20.7 °C 10.5 °C 1012.1 hPa Calm     52 % 0 mm
05:19 20.8 °C 10.6 °C 1012.1 hPa Calm     52 % 0 mm
05:24 20.8 °C 10.8 °C 1012.1 hPa SE 1.6 km/h   53 % 0 mm
05:29 20.8 °C 10.3 °C 1012.1 hPa ESE 1.9 km/h   51 % 0 mm
05:34 20.7 °C 10.5 °C 1012.1 hPa Calm     52 % 0 mm
05:39 20.7 °C 10.2 °C 1012.4 hPa SE 1.9 km/h 0.2 km/h 51 % 0 mm
05:44 20.7 °C 10.4 °C 1012.4 hPa Calm     52 % 0 mm
05:49 20.7 °C 10.2 °C 1012.4 hPa ESE 1.9 km/h   51 % 0 mm
05:54 20.7 °C 10.2 °C 1012.4 hPa Calm     51 % 0 mm
05:59 20.6 °C 9.8 °C 1012.4 hPa Calm     50 % 0 mm
06:04 20.7 °C 9.6 °C 1012.4 hPa SE 1.9 km/h   49 % 0 mm
06:09 20.7 °C 9.6 °C 1012.8 hPa SE 1.9 km/h   49 % 0 mm
06:14 20.7 °C 9.3 °C 1012.8 hPa SE 1.9 km/h   48 % 0 mm
06:19 20.8 °C 9.4 °C 1012.8 hPa Calm     48 % 0 mm
06:24 20.7 °C 9 °C 1012.8 hPa Calm     47 % 0 mm
06:29 20.7 °C 9.3 °C 1012.8 hPa Calm     48 % 0 mm
06:34 20.8 °C 9.4 °C 1012.8 hPa Calm     48 % 0 mm
06:39 20.7 °C 9.3 °C 1012.8 hPa Calm     48 % 0 mm
06:44 20.8 °C 9.4 °C 1012.8 hPa Calm     48 % 0 mm
06:49 20.9 °C 9.2 °C 1013.1 hPa Calm     47 % 0 mm
06:54 20.9 °C 9.5 °C 1013.1 hPa Calm     48 % 0 mm
06:59 21.1 °C 9.3 °C 1013.1 hPa Calm   0.2 km/h 47 % 0 mm
07:04 21.2 °C 9.7 °C 1013.1 hPa SE 1.9 km/h 0.2 km/h 48 % 0 mm
07:09 21.3 °C 9.8 °C 1013.1 hPa ESE 1.9 km/h   48 % 0 mm
07:14 21.4 °C 10 °C 1013.1 hPa SE 1.9 km/h 0.2 km/h 48 % 0 mm
07:19 21.6 °C 10.1 °C 1013.1 hPa Calm     48 % 0 mm
07:24 21.8 °C 10 °C 1013.1 hPa Calm   0.2 km/h 47 % 0 mm
07:29 22.2 °C 10.6 °C 1013.4 hPa SE 1.9 km/h   48 % 0 mm
07:34 22.5 °C 11.2 °C 1013.4 hPa Calm     49 % 0 mm
07:39 22.9 °C 11.9 °C 1013.4 hPa SE 1.9 km/h   50 % 0 mm
07:44 23.2 °C 11.6 °C 1013.4 hPa SE 1.9 km/h 0.2 km/h 48 % 0 mm
07:49 23.4 °C 11.8 °C 1013.4 hPa Calm     48 % 0 mm
07:54 23.9 °C 11.9 °C 1013.4 hPa SE 1.9 km/h   47 % 0 mm
07:59 24.2 °C 11.5 °C 1013.4 hPa East 1.9 km/h   45 % 0 mm
08:04 24.3 °C 11.6 °C 1013.4 hPa SE 5.6 km/h   45 % 0 mm
08:09 24.6 °C 11.2 °C 1013.4 hPa ESE 1.9 km/h 0.2 km/h 43 % 0 mm
08:14 24.8 °C 11.3 °C 1013.8 hPa SE 3.2 km/h 0.8 km/h 43 % 0 mm
08:19 25 °C 11.9 °C 1013.8 hPa Calm     44 % 0 mm
08:24 25.4 °C 11.6 °C 1013.8 hPa ESE 1.9 km/h   42 % 0 mm
08:29 25.9 °C 12 °C 1013.8 hPa SE 1.6 km/h 0.3 km/h 42 % 0 mm
08:34 26.1 °C 11.8 °C 1013.8 hPa Calm   0.2 km/h 41 % 0 mm
08:39 26.4 °C 12.1 °C 1013.8 hPa SSE 3.7 km/h   41 % 0 mm
08:44 26.8 °C 12.4 °C 1013.4 hPa ESE 1.9 km/h   41 % 0 mm
08:49 27.2 °C 12.4 °C 1013.4 hPa SE 1.9 km/h 0.2 km/h 40 % 0 mm
08:54 27.6 °C 12.3 °C 1013.4 hPa Calm     39 % 0 mm
08:59 27.8 °C 12.2 °C 1013.4 hPa Calm     38 % 0 mm
09:04 28.2 °C 12.1 °C 1013.4 hPa Calm   0.8 km/h 37 % 0 mm
09:09 28.3 °C 11.3 °C 1013.4 hPa Calm   0.5 km/h 35 % 0 mm
09:14 28.6 °C 11.2 °C 1013.4 hPa SSE 1.9 km/h   34 % 0 mm
09:19 28.7 °C 10.8 °C 1013.4 hPa ESE 1.9 km/h 1.4 km/h 33 % 0 mm
09:24 28.9 °C 11 °C 1013.4 hPa SE 1.9 km/h 0.2 km/h 33 % 0 mm
09:29 29.2 °C 10.3 °C 1013.4 hPa SE 5.6 km/h 1.9 km/h 31 % 0 mm
09:34 29.4 °C 11.9 °C 1013.4 hPa South 1.9 km/h 0.3 km/h 34 % 0 mm
09:39 29.7 °C 12.1 °C 1013.4 hPa SE 3.7 km/h 0.2 km/h 34 % 0 mm
09:44 29.9 °C 10.9 °C 1013.4 hPa SSE 1.9 km/h 1.6 km/h 31 % 0 mm
09:49 30.1 °C 11.1 °C 1013.4 hPa SE 1.9 km/h 1.3 km/h 31 % 0 mm
09:54 30.2 °C 11.2 °C 1013.4 hPa SSE 1.9 km/h 1.3 km/h 31 % 0 mm
09:59 30.5 °C 12.4 °C 1013.4 hPa SSW 1.9 km/h 0.3 km/h 33 % 0 mm
10:04 30.6 °C 11.1 °C 1013.4 hPa SE 7.4 km/h 1.4 km/h 30 % 0 mm
10:09 30.8 °C 11.2 °C 1013.4 hPa South 3.2 km/h 1.6 km/h 30 % 0 mm
10:14 30.9 °C 11.8 °C 1013.4 hPa SSW 3.7 km/h 1.1 km/h 31 % 0 mm
10:19 31.3 °C 11.6 °C 1013.4 hPa South 1.9 km/h 0.5 km/h 30 % 0 mm
10:24 31.5 °C 12.3 °C 1013.4 hPa SSE 3.2 km/h 0.5 km/h 31 % 0 mm
10:29 31.6 °C 12.4 °C 1013.1 hPa SSW 3.7 km/h 1 km/h 31 % 0 mm
10:34 31.8 °C 12.6 °C 1013.1 hPa Calm     31 % 0 mm
10:39 32.1 °C 13.8 °C 1013.4 hPa North 1.6 km/h 0.3 km/h 33 % 0 mm
10:44 32.2 °C 12.9 °C 1013.1 hPa NW 1.9 km/h 0.3 km/h 31 % 0 mm
10:49 32.2 °C 12.9 °C 1013.1 hPa ENE 5.6 km/h 1.9 km/h 31 % 0 mm
10:54 32.1 °C 12.8 °C 1013.4 hPa SSW 1.9 km/h 1.4 km/h 31 % 0 mm
10:59 32.4 °C 13.6 °C 1013.4 hPa Calm   0.3 km/h 32 % 0 mm
11:04 32.7 °C 13.4 °C 1013.1 hPa NNE 1.6 km/h   31 % 0 mm
11:09 32.8 °C 13.9 °C 1013.1 hPa SSE 1.9 km/h 0.3 km/h 32 % 0 mm
11:14 33.1 °C 13.7 °C 1013.1 hPa SE 1.9 km/h 0.5 km/h 31 % 0 mm
11:19 33.3 °C 13.8 °C 1013.1 hPa SSW 3.7 km/h 1 km/h 31 % 0 mm
11:24 33.5 °C 15 °C 1013.1 hPa NW 1.9 km/h   33 % 0 mm
11:29 33.6 °C 14.2 °C 1013.1 hPa NNW 1.9 km/h   31 % 0 mm
11:34 33.6 °C 15.1 °C 1013.1 hPa South 1.9 km/h   33 % 0 mm
11:39 33.7 °C 15.2 °C 1013.1 hPa NW 1.6 km/h 1.1 km/h 33 % 0 mm
11:44 33.6 °C 13.1 °C 1013.1 hPa NW 3.7 km/h 1.8 km/h 29 % 0 mm
11:49 33.4 °C 12.4 °C 1013.1 hPa NW 3.7 km/h 1.1 km/h 28 % 0 mm
11:54 33.5 °C 13.6 °C 1012.8 hPa SE 1.9 km/h 0.8 km/h 30 % 0 mm
11:59 33.7 °C 13.2 °C 1013.1 hPa WSW 3.7 km/h 1.4 km/h 29 % 0 mm
12:04 33.7 °C 14.2 °C 1012.8 hPa WNW 1.9 km/h 0.8 km/h 31 % 0 mm
12:09 33.8 °C 13.3 °C 1012.8 hPa North 5.6 km/h 1.9 km/h 29 % 0 mm
12:14 33.8 °C 14.3 °C 1012.8 hPa Calm   0.8 km/h 31 % 0 mm
12:19 34 °C 14.5 °C 1012.8 hPa NNE 3.2 km/h 1.6 km/h 31 % 0 mm
12:24 33.9 °C 13.3 °C 1012.4 hPa WNW 3.7 km/h 1.8 km/h 29 % 0 mm
12:29 34.2 °C 14.1 °C 1012.4 hPa North 3.2 km/h 0.8 km/h 30 % 0 mm
12:34 34.2 °C 13.1 °C 1012.4 hPa NW 3.7 km/h   28 % 0 mm
12:39 34.6 °C 15.4 °C 1012.4 hPa NNW 3.7 km/h 0.2 km/h 32 % 0 mm
12:44 34.7 °C 13.6 °C 1012.4 hPa NW 3.7 km/h 1 km/h 28 % 0 mm
12:49 34.7 °C 13.5 °C 1012.4 hPa NNW 5.6 km/h 0.5 km/h 28 % 0 mm
12:54 34.7 °C 12.4 °C 1012.4 hPa NNE 5.6 km/h 1.6 km/h 26 % 0 mm
12:59 34.9 °C 13.7 °C 1012.4 hPa SE 3.2 km/h 0.5 km/h 28 % 0 mm
13:04 35.2 °C 13.3 °C 1012.4 hPa North 1.9 km/h 0.3 km/h 27 % 0 mm
13:09 35.4 °C 14.7 °C 1012.4 hPa West 3.2 km/h 1.8 km/h 29 % 0 mm
13:14 35.5 °C 13.1 °C 1012.1 hPa North 1.9 km/h   26 % 0 mm
13:19 35.5 °C 14.2 °C 1012.1 hPa NW 5.6 km/h 2.1 km/h 28 % 0 mm
13:24 35.3 °C 13.4 °C 1012.1 hPa NNW 3.7 km/h 1.6 km/h 27 % 0 mm
13:29 35.4 °C 14.1 °C 1012.1 hPa ENE 1.9 km/h 0.8 km/h 28 % 0 mm
13:34 35.7 °C 12 °C 1011.7 hPa NW 3.7 km/h 0.6 km/h 24 % 0 mm
13:39 35.6 °C 13.7 °C 1011.7 hPa Calm     27 % 0 mm
13:44 36 °C 14.1 °C 1011.7 hPa Calm   0.3 km/h 27 % 0 mm
13:49 36.4 °C 12.6 °C 1011.7 hPa WNW 1.9 km/h 0.8 km/h 24 % 0 mm
13:54 36.1 °C 10.3 °C 1011.7 hPa West 3.7 km/h 2.3 km/h 21 % 0 mm
13:59 35.9 °C 10.8 °C 1011.7 hPa NNE 3.7 km/h 1 km/h 22 % 0 mm
14:04 36.2 °C 12.4 °C 1011.4 hPa NNE 1.9 km/h 0.2 km/h 24 % 0 mm
14:09 36.5 °C 12 °C 1011.4 hPa NW 1.9 km/h 1.3 km/h 23 % 0 mm
14:14 36.4 °C 15 °C 1011.4 hPa North 1.9 km/h 0.8 km/h 28 % 0 mm
14:19 36.4 °C 12 °C 1011.4 hPa SSW 5.6 km/h 0.3 km/h 23 % 0 mm
14:24 36.4 °C 12.6 °C 1011.1 hPa North 1.9 km/h 0.8 km/h 24 % 0 mm
14:29 36.4 °C 13.3 °C 1011.1 hPa NW 1.9 km/h 0.2 km/h 25 % 0 mm
14:34 36.6 °C 12.8 °C 1011.1 hPa NW 3.2 km/h 0.6 km/h 24 % 0 mm
14:39 36.2 °C 13.1 °C 1011.1 hPa SW 1.9 km/h   25 % 0 mm
14:44 36.3 °C 14.3 °C 1011.1 hPa NW 1.9 km/h 1 km/h 27 % 0 mm
14:49 36.3 °C 14.3 °C 1010.7 hPa ESE 3.7 km/h 1.6 km/h 27 % 0 mm
14:54 36.5 °C 13.9 °C 1010.7 hPa NNW 1.9 km/h   26 % 0 mm
14:59 36.8 °C 12.9 °C 1010.7 hPa NW 3.7 km/h 0.6 km/h 24 % 0 mm
15:04 36.8 °C 14.2 °C 1010.7 hPa WSW 3.7 km/h   26 % 0 mm
15:09 36.9 °C 15.4 °C 1010.4 hPa ENE 1.9 km/h 0.5 km/h 28 % 0 mm
15:14 36.8 °C 13.6 °C 1010.4 hPa WNW 1.9 km/h 0.8 km/h 25 % 0 mm
15:19 36.9 °C 15.4 °C 1010.4 hPa ESE 3.7 km/h 0.5 km/h 28 % 0 mm
15:24 36.7 °C 14.1 °C 1010.4 hPa WNW 3.7 km/h 0.5 km/h 26 % 0 mm
15:29 36.7 °C 13.4 °C 1010.4 hPa NW 3.7 km/h 0.2 km/h 25 % 0 mm
15:34 36.9 °C 15.4 °C 1010 hPa SW 1.9 km/h 0.2 km/h 28 % 0 mm
15:39 36.9 °C 13.6 °C 1010 hPa NW 1.9 km/h 1.6 km/h 25 % 0 mm
15:44 36.8 °C 14.7 °C 1010 hPa NNW 3.7 km/h 0.8 km/h 27 % 0 mm
15:49 36.7 °C 14.1 °C 1010 hPa Calm   0.8 km/h 26 % 0 mm
15:54 36.7 °C 14.7 °C 1010 hPa East 3.7 km/h 0.6 km/h 27 % 0 mm
15:59 36.9 °C 15.9 °C 1010 hPa Calm     29 % 0 mm
16:04 37.1 °C 15.5 °C 1010 hPa Calm     28 % 0 mm
16:09 37.1 °C 15.5 °C 1010 hPa WSW 1.9 km/h 0.3 km/h 28 % 0 mm
16:14 36.7 °C 15.2 °C 1009.7 hPa West 3.2 km/h 0.5 km/h 28 % 0 mm
16:19 36.3 °C 14.9 °C 1009.7 hPa WNW 3.7 km/h 1.4 km/h 28 % 0 mm
16:24 36.1 °C 15.3 °C 1009.7 hPa WNW 1.9 km/h 0.2 km/h 29 % 0 mm
16:29 36.2 °C 14.8 °C 1009.7 hPa West 5.6 km/h 1.4 km/h 28 % 0 mm
16:34 36 °C 14.6 °C 1009.7 hPa NE 5.6 km/h 3.1 km/h 28 % 0 mm
16:39 35.8 °C 15 °C 1009.7 hPa NW 1.9 km/h 1.3 km/h 29 % 0 mm
16:44 35.8 °C 15 °C 1009.4 hPa NW 5.6 km/h 2.6 km/h 29 % 0 mm
16:49 35.6 °C 15.4 °C 1009.4 hPa NNW 5.6 km/h 3.9 km/h 30 % 0 mm
16:54 35.5 °C 14.7 °C 1009.4 hPa WNW 1.9 km/h 2.1 km/h 29 % 0 mm
16:59 35.5 °C 15.3 °C 1009.4 hPa NW 1.9 km/h 1 km/h 30 % 0 mm
17:04 35.6 °C 15.4 °C 1009.4 hPa WNW 3.2 km/h 2.4 km/h 30 % 0 mm
17:09 35.5 °C 15.3 °C 1009.4 hPa WNW 3.2 km/h 1.8 km/h 30 % 0 mm
17:14 35.6 °C 15.3 °C 1009.4 hPa WNW 3.7 km/h 1.3 km/h 30 % 0 mm
17:19 35.5 °C 15.3 °C 1009.4 hPa NW 1.6 km/h 0.6 km/h 30 % 0 mm
17:24 35.4 °C 14.7 °C 1009.4 hPa WNW 1.9 km/h 0.2 km/h 29 % 0 mm
17:29 35.6 °C 14.8 °C 1009.4 hPa WNW 1.9 km/h 1.6 km/h 29 % 0 mm
17:34 35.6 °C 14.8 °C 1009.4 hPa Calm     29 % 0 mm
17:39 35.6 °C 14.8 °C 1009 hPa WNW 1.9 km/h 0.3 km/h 29 % 0 mm
17:44 35.7 °C 15.4 °C 1009 hPa WNW 1.9 km/h   30 % 0 mm
17:49 35.6 °C 15.3 °C 1008.7 hPa NW 3.7 km/h 1.4 km/h 30 % 0 mm
17:54 35.2 °C 14.5 °C 1008.7 hPa NW 3.7 km/h 2.1 km/h 29 % 0 mm
17:59 35 °C 14.8 °C 1008.7 hPa NW 3.2 km/h 1.8 km/h 30 % 0 mm
18:04 34.9 °C 15.3 °C 1008.7 hPa WSW 1.9 km/h 0.6 km/h 31 % 0 mm
18:09 34.8 °C 15.2 °C 1008.7 hPa WNW 1.9 km/h 0.6 km/h 31 % 0 mm
18:14 34.7 °C 15.1 °C 1008.7 hPa WNW 1.9 km/h 0.2 km/h 31 % 0 mm
18:19 34.6 °C 15.4 °C 1008.7 hPa NW 1.9 km/h   32 % 0 mm
18:24 34.4 °C 15.4 °C 1008.4 hPa NW 1.6 km/h 0.2 km/h 32 % 0 mm
18:29 34.3 °C 15.3 °C 1008.4 hPa Calm   0.3 km/h 32 % 0 mm
18:34 34.2 °C 15.1 °C 1008.4 hPa Calm     32 % 0 mm
18:39 33.9 °C 14.9 °C 1008.4 hPa WNW 3.7 km/h 1.6 km/h 32 % 0 mm
18:44 33.7 °C 16.1 °C 1008.4 hPa Calm     35 % 0 mm
18:49 33.4 °C 15.8 °C 1008.4 hPa Calm     35 % 0 mm
18:54 33.2 °C 16.1 °C 1008.4 hPa Calm     36 % 0 mm
18:59 33 °C 15.9 °C 1008.4 hPa Calm     36 % 0 mm
19:04 32.8 °C 16.2 °C 1008.4 hPa NNW 1.9 km/h   37 % 0 mm
19:09 32.7 °C 16.5 °C 1008.7 hPa Calm     38 % 0 mm
19:14 32.4 °C 16.7 °C 1008.7 hPa Calm     39 % 0 mm
19:19 32.3 °C 16.6 °C 1008.4 hPa Calm     39 % 0 mm
19:24 32.1 °C 16.4 °C 1008.4 hPa Calm     39 % 0 mm
19:29 31.9 °C 16.7 °C 1008.7 hPa Calm     40 % 0 mm
19:34 31.7 °C 16.8 °C 1008.7 hPa Calm     41 % 0 mm
19:39 31.5 °C 17.1 °C 1008.7 hPa Calm     42 % 0 mm
19:44 31.3 °C 17.2 °C 1008.7 hPa Calm     43 % 0 mm
19:49 30.9 °C 17.3 °C 1008.7 hPa Calm     44 % 0 mm
19:54 30.6 °C 17.6 °C 1008.7 hPa Calm     46 % 0 mm
19:59 30.3 °C 17.7 °C 1008.7 hPa Calm     47 % 0 mm
20:04 30 °C 17.4 °C 1009 hPa Calm     47 % 0 mm
20:09 29.7 °C 18.5 °C 1009 hPa Calm     51 % 0 mm
20:14 29.4 °C 18.8 °C 1009 hPa Calm     53 % 0 mm
20:19 29.1 °C 18.6 °C 1009 hPa Calm     53 % 0 mm
20:24 28.8 °C 18.9 °C 1009 hPa Calm     55 % 0 mm
20:29 28.6 °C 18.9 °C 1009 hPa Calm     56 % 0 mm
20:34 28.2 °C 17.7 °C 1009 hPa Calm     53 % 0 mm
20:39 28.1 °C 17.9 °C 1009 hPa Calm     54 % 0 mm
20:44 27.9 °C 18.6 °C 1009.4 hPa Calm     57 % 0 mm
20:48 27.7 °C 18.2 °C 1009.4 hPa Calm     56 % 0 mm
20:54 27.5 °C 18.2 °C 1009.4 hPa Calm     57 % 0 mm
20:59 27.4 °C 18.7 °C 1009.4 hPa Calm     59 % 0 mm
21:04 27.2 °C 19.3 °C 1009.4 hPa Calm     62 % 0 mm
21:09 27.2 °C 18.5 °C 1009.7 hPa Calm     59 % 0 mm
21:14 27.2 °C 19.3 °C 1009.7 hPa Calm     62 % 0 mm
21:19 27.2 °C 18.2 °C 1009.7 hPa Calm     58 % 0 mm
21:24 27.1 °C 17.8 °C 1009.7 hPa Calm     57 % 0 mm
21:29 27.1 °C 18.7 °C 1009.7 hPa Calm     60 % 0 mm
21:34 27.1 °C 18.4 °C 1009.7 hPa Calm     59 % 0 mm
21:39 27.2 °C 18.4 °C 1009.7 hPa Calm     59 % 0 mm
21:44 27.2 °C 19 °C 1009.7 hPa Calm     61 % 0 mm
21:49 27.1 °C 19.7 °C 1010 hPa Calm     64 % 0 mm
21:54 26.7 °C 18.5 °C 1010 hPa Calm     61 % 0 mm
21:59 26.4 °C 18.6 °C 1010 hPa Calm     62 % 0 mm
22:04 26.3 °C 19.4 °C 1010 hPa Calm     66 % 0 mm
22:09 26 °C 18.4 °C 1010 hPa Calm     63 % 0 mm
22:14 25.8 °C 19.2 °C 1010 hPa Calm     67 % 0 mm
22:19 25.6 °C 19.4 °C 1010 hPa NNW 1.9 km/h   69 % 0 mm
22:24 25.3 °C 19 °C 1010 hPa Calm     68 % 0 mm
22:29 25.3 °C 19 °C 1010 hPa Calm     68 % 0 mm
22:34 25.3 °C 19.2 °C 1010 hPa Calm     69 % 0 mm
22:39 25.4 °C 18.8 °C 1010 hPa Calm     67 % 0 mm
22:44 25.4 °C 18.8 °C 1010 hPa Calm     67 % 0 mm
22:49 25.4 °C 18.9 °C 1009.7 hPa Calm     67 % 0 mm
22:54 25.4 °C 18.6 °C 1009.7 hPa Calm     66 % 0 mm
22:59 25.4 °C 18.4 °C 1009.7 hPa Calm     65 % 0 mm
23:04 25.3 °C 18.3 °C 1009.7 hPa Calm     65 % 0 mm
23:09 25.3 °C 19 °C 1010 hPa Calm     68 % 0 mm
23:14 25.3 °C 19.2 °C 1010 hPa Calm     69 % 0 mm
23:19 25 °C 19.4 °C 1010 hPa Calm     71 % 0 mm
23:24 24.7 °C 19.1 °C 1010 hPa Calm     71 % 0 mm
23:29 24.5 °C 19.1 °C 1010 hPa Calm     72 % 0 mm
23:34 24.4 °C 18.6 °C 1010 hPa Calm     70 % 0 mm
23:39 24.4 °C 18.8 °C 1010 hPa Calm     71 % 0 mm
23:44 24.3 °C 18.9 °C 1010.4 hPa Calm     72 % 0 mm
23:49 24.1 °C 18.9 °C 1010 hPa Calm     73 % 0 mm
23:54 23.9 °C 18.6 °C 1010 hPa Calm     72 % 0 mm
23:59 23.9 °C 18.6 °C 1010 hPa Calm     72 % 0 mm
Park Place, Exeter, Tulare County, California, USA
Compliments of Weather Underground - 2.75 mb